Time;durP1;ratioP1;P1;durP2;ratioP2;P2;SDS_P1;SDS_P2;PMS_P1;PMS_P2;Temp;Humidity;BMP_temperature;BMP_pressure;BME280_temperature;BME280_humidity;BME280_pressure;Samples;Min_cycle;Max_cycle;Signal;HPM_P1;HPM_P2
2022/05/23 00:02:04;;;;;;;3.80;1.50;;;;;;;;;;4977258;28;20081;-73
2022/05/23 00:04:31;;;;;;;3.97;1.10;;;;;;;;;;4974175;28;20054;-70
2022/05/23 00:06:58;;;;;;;2.92;1.05;;;;;;;;;;4968810;28;20105;-70
2022/05/23 00:09:28;;;;;;;2.95;1.10;;;;;;;;;;4974874;28;20054;-71
2022/05/23 00:11:55;;;;;;;2.78;1.10;;;;;;;;;;4969002;28;20050;-72
2022/05/23 00:14:21;;;;;;;5.68;1.30;;;;;;;;;;4973485;28;20050;-73
2022/05/23 00:16:50;;;;;;;3.78;1.38;;;;;;;;;;4974109;28;20054;-71
2022/05/23 00:19:17;;;;;;;1.92;1.10;;;;;;;;;;4957160;28;20058;-75
2022/05/23 00:21:45;;;;;;;2.72;1.33;;;;;;;;;;4992650;28;20064;-71
2022/05/23 00:24:13;;;;;;;2.08;0.90;;;;;;;;;;4971402;28;20058;-73
2022/05/23 00:26:41;;;;;;;4.80;1.20;;;;;;;;;;4973305;28;20062;-70
2022/05/23 00:29:07;;;;;;;;;;;;;;;;;;4982818;28;20351;-72
2022/05/23 00:31:34;;;;;;;4.35;0.95;;;;;;;;;;4993173;28;19964;-72
2022/05/23 00:36:45;;;;;;;2.03;1.17;;;;;;;;;;4993124;28;20049;-71
2022/05/23 00:39:12;;;;;;;4.88;1.20;;;;;;;;;;4986906;28;20073;-70
2022/05/23 00:44:27;;;;;;;4.60;1.02;;;;;;;;;;4978707;28;20045;-72
2022/05/23 00:46:55;;;;;;;2.92;1.15;;;;;;;;;;5007904;28;20061;-74
2022/05/23 00:49:23;;;;;;;4.63;1.13;;;;;;;;;;5007093;28;20045;-75
2022/05/23 00:51:49;;;;;;;4.68;1.23;;;;;;;;;;4992675;28;20049;-75
2022/05/23 00:54:16;;;;;;;2.83;1.05;;;;;;;;;;4999873;28;20242;-71
2022/05/23 00:56:45;;;;;;;3.95;1.35;;;;;;;;;;4973318;28;20105;-73
2022/05/23 00:59:11;;;;;;;;;;;;;;;;;;4969077;28;20050;-70
2022/05/23 01:01:39;;;;;;;3.05;1.23;;;;;;;;;;4988668;28;19980;-71
2022/05/23 01:04:06;;;;;;;4.30;1.20;;;;;;;;;;4987093;28;20054;-74
2022/05/23 01:06:34;;;;;;;7.22;1.15;;;;;;;;;;4976488;28;20042;-69
2022/05/23 01:09:01;;;;;;;4.03;1.20;;;;;;;;;;4974131;28;20065;-70
2022/05/23 01:11:28;;;;;;;3.13;0.98;;;;;;;;;;4972469;28;20058;-71
2022/05/23 01:13:55;;;;;;;2.55;1.00;;;;;;;;;;4972313;28;20058;-73
2022/05/23 01:16:22;;;;;;;6.75;1.48;;;;;;;;;;5001354;28;20069;-70
2022/05/23 01:18:51;;;;;;;4.60;1.10;;;;;;;;;;4991157;28;20045;-74
2022/05/23 01:21:23;;;;;;;5.43;1.17;;;;;;;;;;4986584;28;20057;-70
2022/05/23 01:23:52;;;;;;;3.58;1.02;;;;;;;;;;4992198;28;20050;-71
2022/05/23 01:26:21;;;;;;;4.38;1.10;;;;;;;;;;4987168;28;20064;-69
2022/05/23 01:28:47;;;;;;;2.80;1.58;;;;;;;;;;4991822;28;20053;-72
2022/05/23 01:31:15;;;;;;;3.60;1.23;;;;;;;;;;4985991;28;20050;-73
2022/05/23 01:33:42;;;;;;;3.00;1.15;;;;;;;;;;4991260;28;20057;-74
2022/05/23 01:36:11;;;;;;;3.28;1.30;;;;;;;;;;4985427;28;20053;-71
2022/05/23 01:38:37;;;;;;;3.60;1.20;;;;;;;;;;4991017;28;20054;-71
2022/05/23 01:41:05;;;;;;;3.00;1.10;;;;;;;;;;4997004;28;20133;-72
2022/05/23 01:43:34;;;;;;;4.68;1.25;;;;;;;;;;4972127;28;20090;-73
2022/05/23 01:46:00;;;;;;;;;;;;;;;;;;4971155;28;20049;-77
2022/05/23 01:48:27;;;;;;;4.63;1.45;;;;;;;;;;4991508;28;19929;-72
2022/05/23 01:50:54;;;;;;;8.20;1.30;;;;;;;;;;4985607;28;20073;-70
2022/05/23 01:53:20;;;;;;;7.53;1.30;;;;;;;;;;4972916;28;20073;-75
2022/05/23 01:55:47;;;;;;;4.85;1.00;;;;;;;;;;4990522;28;20116;-74
2022/05/23 01:58:13;;;;;;;3.45;1.20;;;;;;;;;;4981034;28;20057;-72
2022/05/23 02:03:26;;;;;;;3.10;1.25;;;;;;;;;;4986036;28;20053;-71
2022/05/23 02:05:52;;;;;;;3.60;1.48;;;;;;;;;;4986594;28;20081;-70
2022/05/23 02:08:19;;;;;;;2.85;1.20;;;;;;;;;;4976388;28;20064;-71
2022/05/23 02:10:46;;;;;;;7.57;1.60;;;;;;;;;;4999418;28;20053;-74
2022/05/23 02:13:12;;;;;;;3.17;1.10;;;;;;;;;;4990623;28;20049;-73
2022/05/23 02:15:39;;;;;;;3.55;1.10;;;;;;;;;;4991862;28;20093;-72
2022/05/23 02:18:07;;;;;;;3.95;1.58;;;;;;;;;;4986464;28;20054;-71
2022/05/23 02:20:34;;;;;;;3.28;1.30;;;;;;;;;;4990714;28;20056;-70
2022/05/23 02:23:01;;;;;;;5.07;1.70;;;;;;;;;;4998322;28;20058;-73
2022/05/23 02:25:27;;;;;;;4.35;1.27;;;;;;;;;;5005310;28;20061;-73
2022/05/23 02:27:55;;;;;;;2.78;1.08;;;;;;;;;;4991318;28;20125;-71
2022/05/23 02:30:22;;;;;;;4.38;1.48;;;;;;;;;;4985695;28;20057;-73
2022/05/23 02:32:49;;;;;;;3.08;1.25;;;;;;;;;;4991833;28;20057;-76
2022/05/23 02:35:21;;;;;;;3.85;1.17;;;;;;;;;;4986560;28;20054;-71
2022/05/23 02:37:48;;;;;;;5.03;1.50;;;;;;;;;;4991560;28;20054;-72
2022/05/23 02:40:15;;;;;;;5.22;1.42;;;;;;;;;;4999692;28;20057;-76
2022/05/23 02:42:42;;;;;;;2.47;1.33;;;;;;;;;;4993646;28;20050;-73
2022/05/23 02:45:09;;;;;;;2.65;1.20;;;;;;;;;;4989010;28;20049;-70
2022/05/23 02:47:36;;;;;;;6.38;1.48;;;;;;;;;;4986630;28;20050;-71
2022/05/23 02:50:04;;;;;;;2.92;1.27;;;;;;;;;;4991057;28;20046;-70
2022/05/23 02:52:32;;;;;;;1.85;1.00;;;;;;;;;;4985126;28;20057;-70
2022/05/23 02:54:58;;;;;;;4.05;1.70;;;;;;;;;;4990628;28;20050;-70
2022/05/23 02:57:26;;;;;;;5.55;1.27;;;;;;;;;;4985815;28;20057;-71
2022/05/23 02:59:53;;;;;;;2.60;1.02;;;;;;;;;;4989350;28;20072;-70
2022/05/23 03:05:03;;;;;;;2.72;1.10;;;;;;;;;;4988045;28;20109;-70
2022/05/23 03:07:38;;;;;;;5.72;1.60;;;;;;;;;;4974156;28;20054;-70
2022/05/23 03:10:04;;;;;;;2.28;1.00;;;;;;;;;;4990675;28;20061;-70
2022/05/23 03:12:34;;;;;;;2.17;1.02;;;;;;;;;;4993794;28;20143;-69
2022/05/23 03:15:00;;;;;;;1.77;1.00;;;;;;;;;;5005421;28;20054;-70
2022/05/23 03:17:27;;;;;;;5.40;1.40;;;;;;;;;;4995387;28;20080;-71
2022/05/23 03:19:54;;;;;;;4.47;1.23;;;;;;;;;;4989575;28;20058;-70
2022/05/23 03:27:53;;;;;;;4.93;1.65;;;;;;;;;;5011022;28;20129;-72
2022/05/23 03:30:20;;;;;;;3.60;1.08;;;;;;;;;;4988535;28;20057;-71
2022/05/23 03:32:46;;;;;;;3.28;1.13;;;;;;;;;;4994467;28;20058;-73
2022/05/23 03:35:13;;;;;;;2.47;1.10;;;;;;;;;;4991163;28;20053;-70
2022/05/23 03:37:42;;;;;;;2.05;1.20;;;;;;;;;;5014305;28;20057;-72
2022/05/23 03:40:08;;;;;;;;;;;;;;;;;;5007186;28;20053;-70
2022/05/23 03:42:36;;;;;;;2.25;0.80;;;;;;;;;;4994024;28;19925;-75
2022/05/23 03:45:03;;;;;;;3.42;1.10;;;;;;;;;;5010926;28;20073;-70
2022/05/23 03:47:31;;;;;;;3.88;1.25;;;;;;;;;;5004437;28;20054;-70
2022/05/23 03:49:58;;;;;;;1.97;1.17;;;;;;;;;;4994222;28;20375;-71
2022/05/23 03:52:24;;;;;;;10.30;1.73;;;;;;;;;;5017058;28;20045;-71
2022/05/23 03:54:51;;;;;;;4.28;1.48;;;;;;;;;;4992960;28;20073;-70
2022/05/23 03:57:18;;;;;;;4.65;1.60;;;;;;;;;;4988299;28;20062;-69
2022/05/23 03:59:46;;;;;;;3.20;1.35;;;;;;;;;;4993156;28;20057;-70
2022/05/23 04:02:12;;;;;;;4.55;2.00;;;;;;;;;;4980711;28;20053;-71
2022/05/23 04:04:39;;;;;;;6.38;1.60;;;;;;;;;;4993347;28;20167;-71
2022/05/23 04:07:06;;;;;;;4.40;1.50;;;;;;;;;;4987494;28;20054;-71
2022/05/23 04:09:33;;;;;;;2.63;1.35;;;;;;;;;;5010049;28;20053;-69
2022/05/23 04:12:00;;;;;;;3.95;1.42;;;;;;;;;;4983298;28;20048;-72
2022/05/23 04:14:27;;;;;;;2.83;1.45;;;;;;;;;;4974991;28;20086;-71
2022/05/23 04:17:04;;;;;;;3.78;1.48;;;;;;;;;;4973534;28;20049;-74
2022/05/23 04:19:31;;;;;;;8.40;1.67;;;;;;;;;;4995004;28;20054;-70
2022/05/23 04:21:57;;;;;;;6.72;1.73;;;;;;;;;;4988037;28;20058;-71
2022/05/23 04:24:24;;;;;;;4.60;1.83;;;;;;;;;;4977163;28;20060;-74
2022/05/23 04:26:53;;;;;;;5.53;2.03;;;;;;;;;;4969942;28;20062;-69
2022/05/23 04:29:19;;;;;;;;;;;;;;;;;;5023666;28;20054;-72
2022/05/23 04:31:45;;;;;;;6.75;2.10;;;;;;;;;;5010815;28;20013;-74
2022/05/23 04:36:58;;;;;;;4.72;1.63;;;;;;;;;;4974793;28;20220;-72
2022/05/23 04:39:24;;;;;;;10.32;1.67;;;;;;;;;;5015696;28;20049;-70
2022/05/23 04:41:51;;;;;;;4.00;1.55;;;;;;;;;;4992471;28;20065;-69
2022/05/23 04:44:18;;;;;;;4.13;1.60;;;;;;;;;;4986447;28;20053;-69
2022/05/23 04:49:49;;;;;;;3.35;1.67;;;;;;;;;;4971380;28;20055;-71
2022/05/23 04:52:19;;;;;;;3.05;1.50;;;;;;;;;;4972944;28;20057;-71
2022/05/23 04:54:55;;;;;;;6.05;1.67;;;;;;;;;;4981176;28;20057;-71
2022/05/23 04:57:26;;;;;;;4.32;1.58;;;;;;;;;;4978022;28;20069;-69
2022/05/23 04:59:58;;;;;;;6.22;2.15;;;;;;;;;;4979235;28;20111;-70
2022/05/23 05:02:26;;;;;;;5.68;1.85;;;;;;;;;;4956657;28;20057;-69
2022/05/23 05:04:58;;;;;;;5.40;1.90;;;;;;;;;;4969072;28;20103;-70
2022/05/23 05:07:25;;;;;;;4.00;1.30;;;;;;;;;;4971231;28;20053;-70
2022/05/23 05:09:57;;;;;;;6.18;2.65;;;;;;;;;;4978051;28;20046;-70
2022/05/23 05:12:25;;;;;;;3.85;1.67;;;;;;;;;;4977953;28;20054;-72
2022/05/23 05:14:52;;;;;;;8.02;2.67;;;;;;;;;;4972654;28;20057;-71
2022/05/23 05:17:19;;;;;;;5.60;1.75;;;;;;;;;;4988349;28;20038;-74
2022/05/23 05:19:46;;;;;;;7.50;2.65;;;;;;;;;;4993705;28;20123;-74
2022/05/23 05:22:14;;;;;;;7.60;2.50;;;;;;;;;;4970261;28;20057;-77
2022/05/23 05:24:40;;;;;;;8.07;2.53;;;;;;;;;;4962099;28;20062;-75
2022/05/23 05:27:10;;;;;;;3.38;1.60;;;;;;;;;;4986788;28;20054;-76
2022/05/23 05:29:36;;;;;;;6.45;2.40;;;;;;;;;;4960971;28;20058;-76
2022/05/23 05:32:06;;;;;;;6.68;1.92;;;;;;;;;;4971026;28;20065;-76
2022/05/23 05:34:34;;;;;;;3.92;1.58;;;;;;;;;;4963891;28;20109;-75
2022/05/23 05:37:04;;;;;;;5.72;2.00;;;;;;;;;;4969100;28;20061;-76
2022/05/23 05:39:34;;;;;;;7.22;2.70;;;;;;;;;;4970024;28;20056;-75
2022/05/23 05:42:02;;;;;;;8.43;2.40;;;;;;;;;;4958925;28;20141;-76
2022/05/23 05:44:30;;;;;;;;;;;;;;;;;;4952740;28;20060;-78
2022/05/23 05:47:00;;;;;;;8.07;2.28;;;;;;;;;;4979734;28;19957;-78
2022/05/23 05:49:28;;;;;;;5.85;2.13;;;;;;;;;;4972985;28;20058;-79
2022/05/23 05:51:56;;;;;;;8.10;2.65;;;;;;;;;;4968384;28;20061;-78
2022/05/23 05:54:24;;;;;;;10.18;2.83;;;;;;;;;;4991533;28;20054;-79
2022/05/23 05:56:53;;;;;;;6.43;2.42;;;;;;;;;;4970252;28;20081;-75
2022/05/23 05:59:19;;;;;;;8.23;2.75;;;;;;;;;;4973109;28;20054;-75
2022/05/23 06:01:46;;;;;;;4.45;2.05;;;;;;;;;;4958099;28;20046;-79
2022/05/23 06:04:12;;;;;;;5.10;2.05;;;;;;;;;;4954090;28;20061;-77
2022/05/23 06:12:09;;;;;;;4.45;2.17;;;;;;;;;;4958312;28;20055;-76
2022/05/23 06:14:35;;;;;;;4.32;2.20;;;;;;;;;;4953495;28;20090;-79
2022/05/23 06:17:06;;;;;;;7.50;2.83;;;;;;;;;;4955885;28;20069;-80
2022/05/23 06:19:37;;;;;;;9.05;3.38;;;;;;;;;;4993352;28;20058;-72
2022/05/23 06:22:04;;;;;;;5.10;2.35;;;;;;;;;;4962390;28;20046;-75
2022/05/23 06:24:31;;;;;;;5.07;2.00;;;;;;;;;;4972796;28;20050;-73
2022/05/23 06:26:58;;;;;;;5.38;2.60;;;;;;;;;;4963518;28;20058;-68
2022/05/23 06:29:26;;;;;;;9.75;2.58;;;;;;;;;;4953352;28;20054;-76
2022/05/23 06:31:53;;;;;;;6.57;2.22;;;;;;;;;;4980484;28;20132;-72
2022/05/23 06:34:19;;;;;;;8.30;2.90;;;;;;;;;;4980194;28;20166;-70
2022/05/23 06:36:52;;;;;;;9.52;3.15;;;;;;;;;;4953647;28;20062;-69
2022/05/23 06:39:19;;;;;;;8.63;2.08;;;;;;;;;;4950139;28;20070;-68
2022/05/23 06:41:45;;;;;;;5.25;2.55;;;;;;;;;;4954069;28;20047;-69
2022/05/23 06:44:12;;;;;;;7.53;2.95;;;;;;;;;;4950946;28;20116;-70
2022/05/23 06:46:42;;;;;;;8.27;2.75;;;;;;;;;;4970438;28;20054;-68
2022/05/23 06:49:08;;;;;;;5.10;2.20;;;;;;;;;;4969231;28;20062;-74
2022/05/23 06:51:35;;;;;;;6.30;2.28;;;;;;;;;;4975955;28;20053;-68
2022/05/23 06:54:03;;;;;;;6.10;2.78;;;;;;;;;;4967080;28;20047;-72
2022/05/23 06:56:30;;;;;;;7.70;2.63;;;;;;;;;;4974837;28;20058;-72
2022/05/23 06:58:57;;;;;;;10.80;2.90;;;;;;;;;;4969319;28;20043;-69
2022/05/23 07:01:23;;;;;;;9.55;2.97;;;;;;;;;;4974680;28;20054;-70
2022/05/23 07:03:51;;;;;;;7.60;2.88;;;;;;;;;;4949700;28;20054;-74
2022/05/23 07:14:31;;;;;;;7.15;2.78;;;;;;;;;;4964628;28;20058;-71
2022/05/23 07:17:00;;;;;;;11.13;3.08;;;;;;;;;;4988829;28;20054;-67
2022/05/23 07:19:28;;;;;;;6.72;2.95;;;;;;;;;;4970195;28;20120;-69
2022/05/23 07:21:59;;;;;;;6.70;3.30;;;;;;;;;;4976811;28;20072;-72
2022/05/23 07:24:26;;;;;;;8.13;3.60;;;;;;;;;;4992438;28;20058;-74
2022/05/23 07:26:54;;;;;;;6.65;2.58;;;;;;;;;;4987380;28;20050;-75
2022/05/23 07:29:22;;;;;;;6.67;2.93;;;;;;;;;;4984425;28;20112;-73
2022/05/23 07:31:53;;;;;;;8.50;2.53;;;;;;;;;;4970151;28;20053;-73
2022/05/23 07:34:23;;;;;;;16.65;3.22;;;;;;;;;;4983016;28;20065;-74
2022/05/23 07:36:51;;;;;;;7.85;2.60;;;;;;;;;;4970748;28;20090;-72
2022/05/23 07:39:17;;;;;;;9.82;3.70;;;;;;;;;;4978906;28;20061;-73
2022/05/23 07:41:45;;;;;;;13.45;3.63;;;;;;;;;;4997275;28;20051;-72
2022/05/23 07:44:14;;;;;;;6.50;2.85;;;;;;;;;;4972646;28;20061;-78
2022/05/23 07:46:44;;;;;;;6.13;2.75;;;;;;;;;;4975065;28;20137;-75
2022/05/23 07:49:11;;;;;;;8.25;2.80;;;;;;;;;;4966051;28;20061;-74
2022/05/23 07:51:38;;;;;;;9.55;3.50;;;;;;;;;;4977520;28;20054;-72
2022/05/23 08:02:19;;;;;;;5.90;2.55;;;;;;;;;;4963231;28;20062;-72
2022/05/23 08:04:46;;;;;;;9.93;2.83;;;;;;;;;;4961100;28;20042;-71
2022/05/23 08:07:13;;;;;;;11.30;3.47;;;;;;;;;;4984573;28;20080;-69
2022/05/23 08:09:42;;;;;;;7.60;2.83;;;;;;;;;;4954369;28;20053;-69
2022/05/23 08:12:09;;;;;;;;;;;;;;;;;;4971894;28;20081;-69
2022/05/23 08:14:35;;;;;;;6.80;2.25;;;;;;;;;;4972563;28;19933;-70
2022/05/23 08:17:02;;;;;;;8.32;2.53;;;;;;;;;;4964475;28;20054;-68
2022/05/23 08:19:29;;;;;;;7.05;3.13;;;;;;;;;;4978621;28;20054;-71
2022/05/23 08:21:57;;;;;;;9.10;3.10;;;;;;;;;;4960146;28;20054;-70
2022/05/23 08:24:24;;;;;;;10.10;3.05;;;;;;;;;;4968468;28;20069;-70
2022/05/23 08:26:53;;;;;;;7.95;2.45;;;;;;;;;;4959878;28;20058;-72
2022/05/23 08:29:19;;;;;;;6.38;2.80;;;;;;;;;;4970942;28;20057;-71
2022/05/23 08:31:46;;;;;;;6.05;2.67;;;;;;;;;;4970279;28;20126;-70
2022/05/23 08:34:13;;;;;;;10.35;3.30;;;;;;;;;;4960019;28;20050;-72
2022/05/23 08:36:44;;;;;;;9.35;3.05;;;;;;;;;;4968373;28;20046;-73
2022/05/23 08:39:12;;;;;;;11.68;2.63;;;;;;;;;;4949395;28;20098;-72
2022/05/23 08:41:40;;;;;;;5.25;2.83;;;;;;;;;;4969139;28;20062;-72
2022/05/23 08:44:12;;;;;;;6.93;2.53;;;;;;;;;;4958382;28;20054;-70
2022/05/23 08:46:45;;;;;;;7.25;2.53;;;;;;;;;;4970494;28;20142;-71
2022/05/23 08:49:24;;;;;;;5.32;2.40;;;;;;;;;;4964264;28;20054;-72
2022/05/23 08:51:54;;;;;;;9.02;2.90;;;;;;;;;;4985288;28;20113;-73
2022/05/23 08:54:24;;;;;;;4.97;2.58;;;;;;;;;;4967568;28;20065;-70
2022/05/23 08:56:54;;;;;;;5.75;2.33;;;;;;;;;;4964007;28;20050;-75
2022/05/23 08:59:25;;;;;;;8.20;2.50;;;;;;;;;;4969652;28;20046;-74
2022/05/23 09:01:54;;;;;;;6.30;2.65;;;;;;;;;;4954579;28;20046;-74
2022/05/23 09:04:25;;;;;;;8.20;2.90;;;;;;;;;;4986441;28;20046;-69
2022/05/23 09:06:53;;;;;;;8.70;2.65;;;;;;;;;;4976774;28;20058;-75
2022/05/23 09:09:21;;;;;;;5.35;2.50;;;;;;;;;;4970402;28;20054;-77
2022/05/23 09:11:50;;;;;;;5.82;2.50;;;;;;;;;;4962412;28;20063;-72
2022/05/23 09:14:18;;;;;;;6.30;2.35;;;;;;;;;;4967867;28;20101;-78
2022/05/23 09:16:47;;;;;;;9.43;2.58;;;;;;;;;;4966144;28;20077;-72
2022/05/23 09:19:15;;;;;;;6.03;2.35;;;;;;;;;;4968522;28;20062;-73
2022/05/23 09:24:31;;;;;;;5.72;2.20;;;;;;;;;;4960689;28;20053;-73
2022/05/23 09:27:00;;;;;;;8.00;2.47;;;;;;;;;;4970417;28;20073;-75
2022/05/23 09:29:26;;;;;;;5.95;2.55;;;;;;;;;;4991329;28;20058;-73
2022/05/23 09:31:56;;;;;;;8.55;2.70;;;;;;;;;;4969370;28;20053;-71
2022/05/23 09:34:27;;;;;;;5.70;2.15;;;;;;;;;;4959132;28;20055;-74
2022/05/23 09:36:54;;;;;;;8.02;2.20;;;;;;;;;;4969472;28;20062;-71
2022/05/23 09:39:23;;;;;;;9.45;2.50;;;;;;;;;;4966324;28;20057;-76
2022/05/23 09:47:45;;;;;;;6.78;2.20;;;;;;;;;;4964644;28;20130;-72
2022/05/23 09:50:13;;;;;;;7.32;2.05;;;;;;;;;;4968763;28;20054;-76
2022/05/23 09:52:42;;;;;;;6.35;2.30;;;;;;;;;;4960257;28;20065;-69
2022/05/23 09:55:10;;;;;;;6.78;2.45;;;;;;;;;;4969242;28;20054;-74
2022/05/23 09:57:39;;;;;;;8.73;2.95;;;;;;;;;;4961884;28;20057;-71
2022/05/23 10:00:08;;;;;;;9.45;3.13;;;;;;;;;;4999340;28;20177;-77
2022/05/23 10:02:38;;;;;;;7.07;2.83;;;;;;;;;;4950754;28;20054;-72
2022/05/23 10:05:06;;;;;;;8.95;3.03;;;;;;;;;;4969182;28;20066;-71
2022/05/23 10:07:35;;;;;;;7.45;2.28;;;;;;;;;;4959044;28;20054;-73
2022/05/23 10:10:02;;;;;;;5.80;2.97;;;;;;;;;;4969287;28;20084;-72
2022/05/23 10:12:30;;;;;;;8.35;3.00;;;;;;;;;;4980419;28;20133;-74
2022/05/23 10:15:03;;;;;;;8.18;2.75;;;;;;;;;;4962220;28;20066;-73
2022/05/23 10:17:31;;;;;;;8.43;2.40;;;;;;;;;;4968802;28;20046;-70
2022/05/23 10:20:13;;;;;;;6.45;2.40;;;;;;;;;;4972552;28;20062;-71
2022/05/23 10:22:54;;;;;;;9.63;2.72;;;;;;;;;;4984682;28;20058;-70
2022/05/23 10:25:21;;;;;;;6.20;2.40;;;;;;;;;;4984578;28;20070;-71
2022/05/23 10:27:53;;;;;;;9.48;3.08;;;;;;;;;;4990585;28;20058;-72
2022/05/23 10:30:20;;;;;;;9.82;2.90;;;;;;;;;;4974365;28;20045;-73
2022/05/23 10:32:48;;;;;;;5.13;2.00;;;;;;;;;;4990957;28;20056;-73
2022/05/23 10:35:21;;;;;;;9.13;2.85;;;;;;;;;;4986569;28;20054;-73
2022/05/23 10:37:51;;;;;;;8.45;2.90;;;;;;;;;;4990519;28;20053;-69
2022/05/23 10:43:08;;;;;;;7.25;2.03;;;;;;;;;;4988528;28;20053;-72
2022/05/23 10:45:46;;;;;;;29.42;3.08;;;;;;;;;;4993143;28;20061;-72
2022/05/23 10:48:28;;;;;;;13.10;3.00;;;;;;;;;;4986379;28;20113;-71
2022/05/23 10:50:55;;;;;;;7.65;1.90;;;;;;;;;;5004661;28;20091;-72
2022/05/23 10:53:30;;;;;;;6.60;2.50;;;;;;;;;;4984424;28;20060;-73
2022/05/23 10:56:02;;;;;;;6.45;2.40;;;;;;;;;;5005665;28;20064;-69
2022/05/23 10:58:36;;;;;;;7.22;2.15;;;;;;;;;;4983675;28;20046;-69
2022/05/23 11:01:09;;;;;;;4.88;2.00;;;;;;;;;;4990122;28;20054;-72
2022/05/23 11:03:41;;;;;;;4.95;2.22;;;;;;;;;;4984221;28;20058;-70
2022/05/23 11:06:15;;;;;;;10.48;2.70;;;;;;;;;;4981034;28;20046;-72
2022/05/23 11:08:51;;;;;;;6.13;2.03;;;;;;;;;;4985244;28;20145;-72
2022/05/23 11:11:25;;;;;;;5.55;2.20;;;;;;;;;;4988442;28;20049;-71
2022/05/23 11:14:00;;;;;;;6.60;2.03;;;;;;;;;;4989192;28;20064;-70
2022/05/23 11:16:31;;;;;;;8.90;2.75;;;;;;;;;;4981994;28;20060;-71
2022/05/23 11:19:07;;;;;;;8.93;2.72;;;;;;;;;;4989971;28;20137;-71
2022/05/23 11:21:37;;;;;;;10.57;3.13;;;;;;;;;;4963375;28;20129;-71
2022/05/23 11:24:08;;;;;;;7.28;2.83;;;;;;;;;;4985981;28;20323;-69
2022/05/23 11:26:37;;;;;;;13.10;3.00;;;;;;;;;;4979741;28;20062;-70
2022/05/23 11:34:38;;;;;;;7.03;2.50;;;;;;;;;;4952528;28;20054;-69
2022/05/23 11:37:42;;;;;;;10.25;2.15;;;;;;;;;;4950540;28;20055;-69
2022/05/23 11:40:01;;;;;;;5.40;2.42;;;;;;;;;;4954438;28;20145;-69
2022/05/23 11:42:29;;;;;;;6.22;2.50;;;;;;;;;;4953922;28;20050;-69
2022/05/23 11:47:52;;;;;;;7.80;2.55;;;;;;;;;;4968387;28;20057;-69
2022/05/23 11:50:21;;;;;;;3.83;2.00;;;;;;;;;;4974757;28;20100;-69
2022/05/23 11:52:50;;;;;;;6.93;2.38;;;;;;;;;;4981191;28;20051;-70
2022/05/23 11:55:32;;;;;;;15.05;2.85;;;;;;;;;;4955149;28;20058;-70
2022/05/23 11:58:17;;;;;;;9.98;2.88;;;;;;;;;;4961781;28;20077;-70
2022/05/23 12:01:01;;;;;;;6.78;2.25;;;;;;;;;;4973416;28;20050;-69
2022/05/23 12:03:48;;;;;;;11.70;3.03;;;;;;;;;;4966480;28;20050;-69
2022/05/23 12:06:16;;;;;;;9.30;2.45;;;;;;;;;;4972465;28;20066;-69
2022/05/23 12:08:59;;;;;;;6.45;2.97;;;;;;;;;;4982014;28;20066;-68
2022/05/23 12:11:27;;;;;;;5.95;2.45;;;;;;;;;;4983531;28;20072;-70
2022/05/23 12:13:58;;;;;;;7.20;2.92;;;;;;;;;;4957902;28;20065;-69
2022/05/23 12:16:37;;;;;;;11.70;2.67;;;;;;;;;;4972946;28;20058;-70
2022/05/23 12:19:21;;;;;;;8.23;2.58;;;;;;;;;;4968311;28;20074;-69
2022/05/23 12:21:49;;;;;;;9.88;2.50;;;;;;;;;;4975413;28;20130;-70
2022/05/23 12:24:27;;;;;;;7.78;2.55;;;;;;;;;;4983952;28;20093;-69
2022/05/23 12:26:55;;;;;;;5.00;2.08;;;;;;;;;;4990941;28;20050;-70
2022/05/23 12:29:28;;;;;;;7.63;2.20;;;;;;;;;;4966267;28;20046;-70
2022/05/23 12:32:13;;;;;;;6.28;2.50;;;;;;;;;;4973299;28;20042;-69
2022/05/23 12:34:42;;;;;;;7.93;2.42;;;;;;;;;;4965430;28;20038;-69
2022/05/23 12:37:14;;;;;;;5.38;2.10;;;;;;;;;;4972542;28;20074;-69
2022/05/23 12:39:50;;;;;;;8.15;2.05;;;;;;;;;;4952267;28;20055;-69
2022/05/23 12:42:28;;;;;;;5.97;2.30;;;;;;;;;;4959321;28;20059;-69
2022/05/23 12:45:10;;;;;;;5.32;1.90;;;;;;;;;;4963312;28;20082;-69
2022/05/23 12:47:59;;;;;;;7.32;2.25;;;;;;;;;;4953963;28;20142;-69
2022/05/23 12:50:37;;;;;;;6.28;1.80;;;;;;;;;;4965676;28;20062;-69
2022/05/23 12:53:16;;;;;;;9.63;2.00;;;;;;;;;;4972985;28;20074;-70
2022/05/23 12:55:49;;;;;;;6.65;1.65;;;;;;;;;;4967008;28;20047;-69
2022/05/23 12:58:24;;;;;;;6.97;1.60;;;;;;;;;;4972687;28;20069;-69
2022/05/23 13:00:55;;;;;;;4.53;1.85;;;;;;;;;;4950089;28;20113;-69
2022/05/23 13:03:27;;;;;;;5.78;2.17;;;;;;;;;;4969804;28;20059;-69
2022/05/23 13:05:56;;;;;;;6.22;2.03;;;;;;;;;;4948010;28;20097;-69
2022/05/23 13:08:26;;;;;;;4.35;1.85;;;;;;;;;;4952506;28;20064;-69
2022/05/23 13:10:56;;;;;;;6.72;2.65;;;;;;;;;;4978692;28;20050;-69
2022/05/23 13:13:26;;;;;;;11.00;2.10;;;;;;;;;;4972368;28;20134;-69
2022/05/23 13:15:53;;;;;;;6.05;2.10;;;;;;;;;;4965896;28;20176;-69
2022/05/23 13:23:52;;;;;;;5.18;1.90;;;;;;;;;;4987720;28;20144;-71
2022/05/23 13:26:20;;;;;;;7.78;2.47;;;;;;;;;;4986029;28;20129;-69
2022/05/23 13:28:48;;;;;;;8.23;2.08;;;;;;;;;;4990884;28;20077;-70
2022/05/23 13:31:23;;;;;;;6.35;2.50;;;;;;;;;;4975409;28;20141;-70
2022/05/23 13:33:49;;;;;;;9.35;2.22;;;;;;;;;;4973681;28;20065;-70
2022/05/23 13:36:22;;;;;;;6.30;1.85;;;;;;;;;;5000348;28;20064;-70
2022/05/23 13:39:01;;;;;;;5.53;1.60;;;;;;;;;;4991825;28;20053;-70
2022/05/23 13:41:28;;;;;;;23.98;3.00;;;;;;;;;;4998295;28;20085;-70
2022/05/23 13:43:54;;;;;;;5.72;2.20;;;;;;;;;;4988279;28;20070;-70
2022/05/23 13:46:23;;;;;;;6.18;2.08;;;;;;;;;;4979643;28;20074;-71
2022/05/23 13:48:51;;;;;;;4.38;1.70;;;;;;;;;;4991187;28;20049;-70
2022/05/23 13:51:21;;;;;;;11.30;2.60;;;;;;;;;;5001026;28;20112;-70
2022/05/23 13:53:50;;;;;;;13.90;2.80;;;;;;;;;;4992440;28;20050;-70
2022/05/23 13:56:18;;;;;;;4.70;2.10;;;;;;;;;;5003453;28;20061;-71
2022/05/23 13:58:48;;;;;;;9.10;2.58;;;;;;;;;;4992934;28;20050;-70
2022/05/23 14:01:20;;;;;;;6.68;2.60;;;;;;;;;;4985182;28;20050;-70
2022/05/23 14:03:50;;;;;;;8.80;2.00;;;;;;;;;;4968133;28;20054;-71
2022/05/23 14:06:22;;;;;;;8.93;2.60;;;;;;;;;;4986552;28;20131;-70
2022/05/23 14:08:52;;;;;;;7.38;2.50;;;;;;;;;;4981406;28;20050;-70
2022/05/23 14:11:20;;;;;;;8.45;2.63;;;;;;;;;;4986651;28;20137;-70
2022/05/23 14:13:47;;;;;;;13.48;3.28;;;;;;;;;;4978826;28;20061;-70
2022/05/23 14:16:15;;;;;;;4.93;1.70;;;;;;;;;;5004185;28;20050;-70
2022/05/23 14:18:42;;;;;;;4.80;1.70;;;;;;;;;;4978781;28;20117;-70
2022/05/23 14:21:28;;;;;;;5.07;2.10;;;;;;;;;;4988023;28;20543;-70
2022/05/23 14:23:56;;;;;;;3.30;1.70;;;;;;;;;;4974582;28;20077;-71
2022/05/23 14:26:23;;;;;;;9.00;2.60;;;;;;;;;;4987602;28;20053;-70
2022/05/23 14:28:54;;;;;;;9.68;2.15;;;;;;;;;;4984956;28;20096;-71
2022/05/23 14:31:38;;;;;;;4.40;1.63;;;;;;;;;;4981528;28;20041;-69
2022/05/23 14:34:06;;;;;;;5.82;1.70;;;;;;;;;;4986878;28;20058;-70
2022/05/23 14:36:33;;;;;;;6.60;2.00;;;;;;;;;;4976538;28;20057;-71
2022/05/23 14:39:02;;;;;;;4.95;1.80;;;;;;;;;;4987024;28;20049;-71
2022/05/23 14:41:30;;;;;;;7.97;1.90;;;;;;;;;;4994169;28;20050;-71
2022/05/23 14:43:58;;;;;;;3.65;1.60;;;;;;;;;;4987986;28;20064;-71
2022/05/23 14:46:25;;;;;;;;;;;;;;;;;;4998736;28;20058;-71
2022/05/23 14:48:53;;;;;;;12.15;4.30;;;;;;;;;;4984974;28;19925;-71
2022/05/23 14:51:26;;;;;;;9.52;3.28;;;;;;;;;;4983899;28;20053;-70
2022/05/23 14:56:44;;;;;;;8.35;2.88;;;;;;;;;;4986690;28;20054;-70
2022/05/23 15:02:01;;;;;;;8.50;3.00;;;;;;;;;;4979044;28;20089;-70
2022/05/23 15:04:28;;;;;;;10.88;2.70;;;;;;;;;;4983173;28;20130;-70
2022/05/23 15:06:56;;;;;;;7.05;3.03;;;;;;;;;;4989889;28;20045;-70
2022/05/23 15:09:23;;;;;;;9.63;3.10;;;;;;;;;;4981810;28;20054;-70
2022/05/23 15:11:52;;;;;;;13.35;2.78;;;;;;;;;;4991167;28;20049;-70
2022/05/23 15:14:20;;;;;;;9.40;3.72;;;;;;;;;;4980482;28;20046;-70
2022/05/23 15:16:48;;;;;;;10.20;3.60;;;;;;;;;;5005770;28;20053;-70
2022/05/23 15:19:18;;;;;;;3.60;1.83;;;;;;;;;;4982838;28;20058;-70
2022/05/23 15:21:45;;;;;;;3.33;1.77;;;;;;;;;;4990605;28;20085;-70
2022/05/23 15:24:12;;;;;;;7.45;1.70;;;;;;;;;;4989939;28;20062;-70
2022/05/23 15:26:40;;;;;;;5.00;1.92;;;;;;;;;;4995834;28;20054;-70
2022/05/23 15:29:10;;;;;;;6.03;2.22;;;;;;;;;;4990107;28;20064;-71
2022/05/23 15:31:41;;;;;;;12.88;4.50;;;;;;;;;;4980224;28;20038;-70
2022/05/23 15:34:07;;;;;;;13.55;4.57;;;;;;;;;;5007266;28;20056;-70
2022/05/23 15:36:36;;;;;;;13.50;5.40;;;;;;;;;;4980279;28;20046;-70
2022/05/23 15:39:03;;;;;;;9.80;3.75;;;;;;;;;;4991654;28;20053;-70
2022/05/23 15:41:30;;;;;;;10.75;3.67;;;;;;;;;;4985040;28;20050;-70
2022/05/23 15:43:57;;;;;;;7.63;3.88;;;;;;;;;;4987468;28;20062;-71
2022/05/23 15:46:26;;;;;;;5.43;2.45;;;;;;;;;;4989718;28;20053;-70
2022/05/23 15:48:52;;;;;;;10.10;4.43;;;;;;;;;;4981396;28;20062;-70
2022/05/23 15:51:19;;;;;;;15.80;8.35;;;;;;;;;;4989663;28;20053;-70
2022/05/23 15:53:46;;;;;;;10.07;4.28;;;;;;;;;;4996922;28;20136;-70
2022/05/23 15:56:13;;;;;;;9.02;3.88;;;;;;;;;;4992048;28;20053;-70
2022/05/23 15:58:41;;;;;;;17.95;8.93;;;;;;;;;;4997081;28;20054;-71
2022/05/23 16:01:09;;;;;;;15.20;5.70;;;;;;;;;;4986971;28;20122;-70
2022/05/23 16:03:37;;;;;;;20.35;7.28;;;;;;;;;;4993138;28;20061;-71
2022/05/23 16:06:06;;;;;;;11.38;3.95;;;;;;;;;;4999417;28;20049;-70
2022/05/23 16:08:32;;;;;;;12.07;5.05;;;;;;;;;;4990100;28;20061;-71
2022/05/23 16:11:02;;;;;;;8.18;3.45;;;;;;;;;;4980053;28;20077;-69